METAR Data
IDs: Format: Raw Decoded Include TAF

Data at: 0822 UTC 20 Sep 2018

KMWM 200244Z AUTO 36013G18KT 3/4SM BR OVC002 16/15 A2996 RMK AO2 LTG DSNT S AND W
KMWM 200235Z AUTO 03014G17KT 3/4SM -RA OVC002 16/15 A2995 RMK AO2 LTG DSNT S AND SW
KMWM 200215Z AUTO 01010G14KT 3/4SM BR OVC002 15/15 A2997 RMK AO2 LTG DSNT S
KMWM 200155Z AUTO 33010KT 10SM OVC004 16/15 A2998 RMK AO2 P0001 P0001
KMWM 200135Z AUTO 01003G08KT 10SM -RA OVC004 16/15 A2995 RMK AO2 LTG DSNT S P0001 P0001
KMWM 200115Z AUTO 07015KT 10SM -RA BKN004 OVC009 16/15 A2989 RMK AO2 LTG DSNT S AND SW
KMWM 200055Z AUTO 05013G18KT 10SM RA OVC004 15/14 A2991 RMK AO2 LTG DSNT S AND SW P0003 P0003
KMWM 200035Z AUTO 04012KT 10SM -RA OVC004 16/15 A2995 RMK AO2 P0002 P0002
KMWM 200015Z AUTO 02012KT 10SM -VCTSRA OVC002 18/17 A2996 RMK AO2 LTG DSNT SE THRU W P0001 P0001
KMWM 192355Z AUTO 35008KT 5SM +RA BKN002 BKN009 BKN080 18/17 A2998 RMK AO2 LTG DSNT SW AND NW P0003 P0003
KMWM 192335Z AUTO 00000KT 10SM -DZ SCT010 SCT018 120 19/18 A2997 RMK AO2 LTG DSNT S THRU W
KMWM 192315Z AUTO 08005KT 10SM -RA SCT013 19/18 A2993 RMK AO2 LTG DSNT SW
KMWM 192255Z AUTO 02003KT 10SM -RA SCT013 19/18 A2994 RMK AO2 LTG DSNT SE AND SW P0001 P0001
KMWM 192235Z AUTO 10005KT 10SM -RA SCT011 SCT044 19/18 A2994 RMK AO2 LTG DSNT S
KMWM 192228Z AUTO 05004KT 10SM RA SCT013 19/18 A2994 RMK AO2 LTG DSNT S AND NW
KMWM 192109Z AUTO 09009KT 10SM SCT006 BKN016 19/18 A2990 RMK AO2 LTG DSNT S
KMWM 192055Z AUTO 07008KT 10SM -RA BKN016 19/18 A2995 RMK AO2 LTG DSNT S P0002 P0002
KMWM 192035Z AUTO 05005KT 10SM -RA SCT010 BKN016 BKN090 19/18 A2996 RMK AO2 LTG DSNT S AND W P0001 P0001
KMWM 192025Z AUTO 33006KT 10SM RA SCT010 OVC014 19/18 A2998 RMK AO2 LTG DSNT SW P0001 P0001
KMWM 192007Z AUTO 36004KT 10SM OVC012 19/17 A2996 RMK AO2 LTG DSNT S
KMWM 191955Z AUTO 00000KT 10SM BKN012 19/17 A2996 RMK AO2
KMWM 191935Z AUTO 08005KT 10SM -RA BKN012 19/18 A2994 RMK AO2 LTG DSNT W
KMWM 191915Z AUTO 14004KT 10SM OVC012 19/17 A2997 RMK AO2
KMWM 191855Z AUTO 00000KT 10SM BKN008 19/17 A2995 RMK AO2
KMWM 191835Z AUTO 05003KT 10SM BKN006 19/18 A2994 RMK AO2
KMWM 191815Z AUTO 06006KT 10SM BKN006 19/17 A2994 RMK AO2
KMWM 191755Z AUTO 05003KT 10SM BKN006 19/17 A2997 RMK AO2
KMWM 191735Z AUTO 05004KT 10SM BKN006 19/17 A2998 RMK AO2
KMWM 191715Z AUTO 08007KT 10SM OVC004 18/17 A2998 RMK AO2 LTG DSNT SW
KMWM 191655Z AUTO 09007KT 7SM -RA OVC004 18/17 A2998 RMK AO2
KMWM 191635Z AUTO 09007KT 7SM -RA OVC004 18/17 A2999 RMK AO2
KMWM 191615Z AUTO 09006KT 7SM OVC004 17/17 A2998 RMK AO2
KMWM 191555Z AUTO 08010KT 5SM BR OVC004 17/17 A2995 RMK AO2 P0001 P0001
KMWM 191535Z AUTO 07009KT 5SM -RA OVC004 17/17 A2998 RMK AO2 P0001 P0001
KMWM 191515Z AUTO 03009KT 10SM -RA BKN004 17/17 A3000 RMK AO2 LTG DSNT S P0001 P0001
KMWM 191455Z AUTO 01007KT 7SM RA SCT004 BKN013 BKN018 17/17 A3000 RMK AO2 P0006 P0006
KMWM 191435Z AUTO 36006KT 10SM RA BKN013 BKN020 17/17 A3000 RMK AO2 LTG DSNT S P0005 P0005
KMWM 191415Z AUTO 35003KT 10SM RA BKN010 OVC013 17/17 A2999 RMK AO2 P0002 P0002
KMWM 191355Z AUTO 00000KT 10SM RA BKN010 17/16 A2998 RMK AO2
KMWM 191335Z AUTO 01003KT 10SM -RA BKN010 17/16 A2995 RMK AO2 LTG DSNT SW
KMWM 191315Z AUTO 05006KT 10SM BKN010 17/17 A2992 RMK AO2
KMWM 191255Z AUTO 06006KT 10SM OVC008 17/16 A2992 RMK AO2 LTG DSNT SW AND W
KMWM 191235Z AUTO 08006KT 10SM -RA BKN008 OVC075 17/16 A2994 RMK AO2 LTG DSNT SW AND W
KMWM 191215Z AUTO 08006KT 10SM -RA SCT006 OVC075 17/16 A2994 RMK AO2 LTG DSNT E AND SE
KMWM 191155Z AUTO 10005KT 10SM -RA BKN006 OVC075 17/16 A2996 RMK AO2 LTG DSNT SE AND S P0011 P0011
KMWM 191135Z AUTO 13016G21KT 5SM +RA OVC006 17/16 A2994 RMK AO2 LTG DSNT W P0007 P0007
KMWM 191115Z AUTO 14008KT 7SM +RA OVC006 17/16 A2998 RMK AO2 LTG DSNT SE THRU SW P0002 P0002
KMWM 191055Z AUTO 13006KT 10SM OVC006 17/16 A2996 RMK AO2 LTG DSNT SE THRU SW
KMWM 191035Z AUTO 12007KT 10SM OVC004 17/16 A2995 RMK AO2 LTG DSNT S
KMWM 191015Z AUTO 11007KT 7SM OVC004 17/16 A2995 RMK AO2 LTG DSNT SW
KMWM 190955Z AUTO 09006KT 5SM BR BKN004 BKN070 17/16 A2992 RMK AO2 LTG DSNT SW
KMWM 190935Z AUTO 08005KT 7SM SCT006 SCT055 BKN070 17/16 A2993 RMK AO2 LTG DSNT S THRU W
KMWM 190933Z AUTO 08006KT 7SM SCT006 SCT055 BKN070 17/16 A2993 RMK AO2 LTG DSNT SW AND W